AAL1686 KDCA-KCLT
Flight info
| Callsign | AAL1686 |
|---|---|
| Flight time | 1h 3m |
| Altitude | 36000 |
| Route | SCRAM6 GLANC DCT AIROW CHSLY6 |
| Aircraft | A319/M-SDE3FGHIRWY/LB1 |
Departure
| Time | 2026-04-26 09:03 |
|---|---|
| Airport | Ronald Reagan Washington National Airport (KDCA) |
Arrival
| Time | 2026-04-26 10:07 |
|---|---|
| Airport | Charlotte Douglas International Airport (KCLT) |
| Time | Latitude | Longitude | Altitude | Speed | Heading |
|---|---|---|---|---|---|
| 2026-04-26 08:37 | 38.85746 | -77.04301 | 22 ft | 0 kts | 252° |
| 2026-04-26 08:54 | 38.85747 | -77.04297 | 22 ft | 2 kts | 253° |
| 2026-04-26 08:54 | 38.85751 | -77.04279 | 22 ft | 2 kts | 252° |
| 2026-04-26 08:54 | 38.85756 | -77.04260 | 22 ft | 2 kts | 252° |
| 2026-04-26 08:55 | 38.85760 | -77.04242 | 22 ft | 2 kts | 252° |
| 2026-04-26 08:55 | 38.85760 | -77.04224 | 22 ft | 2 kts | 298° |
| 2026-04-26 08:55 | 38.85750 | -77.04209 | 22 ft | 2 kts | 336° |
| 2026-04-26 08:55 | 38.85735 | -77.04207 | 22 ft | 2 kts | 14° |
| 2026-04-26 08:56 | 38.85722 | -77.04216 | 22 ft | 2 kts | 52° |
| 2026-04-26 08:56 | 38.85717 | -77.04227 | 22 ft | 2 kts | 78° |
| 2026-04-26 08:56 | 38.85713 | -77.04253 | 22 ft | 2 kts | 72° |
| 2026-04-26 08:56 | 38.85710 | -77.04263 | 22 ft | 0 kts | 73° |
| 2026-04-26 08:58 | 38.85710 | -77.04262 | 22 ft | 0 kts | 73° |
| 2026-04-26 08:58 | 38.85718 | -77.04230 | 22 ft | 8 kts | 73° |
| 2026-04-26 08:59 | 38.85733 | -77.04145 | 21 ft | 11 kts | 92° |
| 2026-04-26 08:59 | 38.85683 | -77.04062 | 20 ft | 13 kts | 143° |
| 2026-04-26 08:59 | 38.85592 | -77.04031 | 21 ft | 13 kts | 173° |
| 2026-04-26 08:59 | 38.85498 | -77.04014 | 22 ft | 13 kts | 171° |
| 2026-04-26 09:00 | 38.85399 | -77.03999 | 22 ft | 15 kts | 176° |
| 2026-04-26 09:00 | 38.85334 | -77.03964 | 21 ft | 7 kts | 113° |
| 2026-04-26 09:00 | 38.85246 | -77.03924 | 20 ft | 27 kts | 179° |
| 2026-04-26 09:00 | 38.85033 | -77.03904 | 20 ft | 30 kts | 174° |
| 2026-04-26 09:01 | 38.84824 | -77.03882 | 20 ft | 30 kts | 175° |
| 2026-04-26 09:01 | 38.84617 | -77.03862 | 18 ft | 30 kts | 175° |
| 2026-04-26 09:01 | 38.84427 | -77.03844 | 15 ft | 19 kts | 176° |
| 2026-04-26 09:01 | 38.84308 | -77.03832 | 15 ft | 15 kts | 175° |
| 2026-04-26 09:02 | 38.84225 | -77.03806 | 14 ft | 11 kts | 144° |
| 2026-04-26 09:02 | 38.84196 | -77.03720 | 14 ft | 7 kts | 82° |
| 2026-04-26 09:02 | 38.84220 | -77.03682 | 13 ft | 3 kts | 360° |
| 2026-04-26 09:02 | 38.84221 | -77.03682 | 13 ft | 0 kts | 359° |
| 2026-04-26 09:03 | 38.84399 | -77.03700 | 16 ft | 70 kts | 355° |
| 2026-04-26 09:03 | 38.85238 | -77.03793 | 106 ft | 160 kts | 358° |
| 2026-04-26 09:03 | 38.86356 | -77.03918 | 1168 ft | 171 kts | 351° |
| 2026-04-26 09:04 | 38.87429 | -77.04615 | 2127 ft | 189 kts | 327° |
| 2026-04-26 09:04 | 38.88487 | -77.05774 | 2635 ft | 212 kts | 323° |
| 2026-04-26 09:04 | 38.89644 | -77.06982 | 3481 ft | 220 kts | 318° |
| 2026-04-26 09:04 | 38.90629 | -77.08518 | 4170 ft | 235 kts | 304° |
| 2026-04-26 09:05 | 38.91552 | -77.10298 | 4720 ft | 246 kts | 312° |
| 2026-04-26 09:05 | 38.92856 | -77.11761 | 4982 ft | 248 kts | 326° |
| 2026-04-26 09:05 | 38.94318 | -77.12923 | 5003 ft | 250 kts | 329° |
| 2026-04-26 09:05 | 38.95790 | -77.14145 | 5394 ft | 258 kts | 317° |
| 2026-04-26 09:06 | 38.96808 | -77.16030 | 6437 ft | 259 kts | 292° |
| 2026-04-26 09:06 | 38.97246 | -77.18220 | 7518 ft | 258 kts | 282° |
| 2026-04-26 09:06 | 38.97581 | -77.20468 | 8476 ft | 260 kts | 280° |
| 2026-04-26 09:06 | 38.97910 | -77.22737 | 9401 ft | 263 kts | 279° |
| 2026-04-26 09:07 | 38.98038 | -77.25073 | 10269 ft | 265 kts | 263° |
| 2026-04-26 09:07 | 38.97511 | -77.27370 | 10869 ft | 278 kts | 243° |
| 2026-04-26 09:07 | 38.96260 | -77.29370 | 11282 ft | 299 kts | 221° |
| 2026-04-26 09:07 | 38.94475 | -77.30861 | 11695 ft | 318 kts | 213° |
| 2026-04-26 09:08 | 38.92503 | -77.32335 | 12242 ft | 330 kts | 212° |
| 2026-04-26 09:08 | 38.90517 | -77.33811 | 13053 ft | 333 kts | 212° |
| 2026-04-26 09:08 | 38.88543 | -77.35284 | 13875 ft | 334 kts | 213° |
| 2026-04-26 09:08 | 38.86521 | -77.36800 | 14665 ft | 337 kts | 213° |
| 2026-04-26 09:09 | 38.84510 | -77.38313 | 15421 ft | 339 kts | 213° |
| 2026-04-26 09:09 | 38.82486 | -77.39837 | 16157 ft | 342 kts | 213° |
| 2026-04-26 09:09 | 38.80424 | -77.41389 | 16884 ft | 344 kts | 213° |
| 2026-04-26 09:09 | 38.78377 | -77.42932 | 17560 ft | 347 kts | 213° |
| 2026-04-26 09:10 | 38.76292 | -77.44501 | 18228 ft | 350 kts | 213° |
| 2026-04-26 09:10 | 38.74184 | -77.46087 | 18895 ft | 353 kts | 213° |
| 2026-04-26 09:10 | 38.72070 | -77.47677 | 19542 ft | 355 kts | 213° |
| 2026-04-26 09:10 | 38.69941 | -77.49276 | 20166 ft | 357 kts | 213° |
| 2026-04-26 09:11 | 38.67807 | -77.50879 | 20772 ft | 360 kts | 213° |
| 2026-04-26 09:11 | 38.65637 | -77.52508 | 21370 ft | 362 kts | 213° |
| 2026-04-26 09:11 | 38.63459 | -77.54140 | 21952 ft | 364 kts | 213° |
| 2026-04-26 09:11 | 38.61283 | -77.55770 | 22505 ft | 366 kts | 213° |
| 2026-04-26 09:12 | 38.59097 | -77.57407 | 23030 ft | 368 kts | 213° |
| 2026-04-26 09:12 | 38.56867 | -77.59074 | 23549 ft | 371 kts | 213° |
| 2026-04-26 09:12 | 38.54647 | -77.60734 | 24053 ft | 373 kts | 213° |
| 2026-04-26 09:12 | 38.52423 | -77.62395 | 24533 ft | 375 kts | 212° |
| 2026-04-26 09:13 | 38.50151 | -77.64092 | 25012 ft | 377 kts | 212° |
| 2026-04-26 09:13 | 38.47924 | -77.65853 | 25465 ft | 378 kts | 216° |
| 2026-04-26 09:13 | 38.45841 | -77.67863 | 25896 ft | 380 kts | 220° |
| 2026-04-26 09:13 | 38.43908 | -77.70124 | 26311 ft | 382 kts | 225° |
| 2026-04-26 09:14 | 38.42096 | -77.72636 | 26733 ft | 385 kts | 227° |
| 2026-04-26 09:14 | 38.40329 | -77.75196 | 27149 ft | 387 kts | 228° |
| 2026-04-26 09:14 | 38.38562 | -77.77777 | 27551 ft | 389 kts | 228° |
| 2026-04-26 09:14 | 38.36771 | -77.80405 | 27951 ft | 391 kts | 228° |
| 2026-04-26 09:15 | 38.35029 | -77.83060 | 28325 ft | 393 kts | 229° |
| 2026-04-26 09:15 | 38.33303 | -77.85729 | 28876 ft | 390 kts | 229° |
| 2026-04-26 09:15 | 38.31627 | -77.88322 | 29868 ft | 376 kts | 229° |
| 2026-04-26 09:15 | 38.29975 | -77.90870 | 30523 ft | 371 kts | 228° |
| 2026-04-26 09:16 | 38.28339 | -77.93383 | 30683 ft | 378 kts | 228° |
| 2026-04-26 09:16 | 38.26635 | -77.95993 | 30911 ft | 382 kts | 228° |
| 2026-04-26 09:16 | 38.24947 | -77.98579 | 31268 ft | 383 kts | 228° |
| 2026-04-26 09:16 | 38.23238 | -78.01196 | 31639 ft | 383 kts | 228° |
| 2026-04-26 09:17 | 38.21531 | -78.03803 | 31955 ft | 385 kts | 228° |
| 2026-04-26 09:17 | 38.18103 | -78.09034 | 32022 ft | 386 kts | 228° |
| 2026-04-26 09:18 | 38.14663 | -78.14275 | 32025 ft | 386 kts | 228° |
| 2026-04-26 09:18 | 38.11237 | -78.19484 | 32025 ft | 386 kts | 228° |
| 2026-04-26 09:19 | 38.07804 | -78.24696 | 32024 ft | 386 kts | 228° |
| 2026-04-26 09:19 | 38.04403 | -78.29971 | 32026 ft | 386 kts | 229° |
| 2026-04-26 09:20 | 38.01012 | -78.35272 | 32024 ft | 386 kts | 229° |
| 2026-04-26 09:20 | 37.97617 | -78.40559 | 32025 ft | 386 kts | 229° |
| 2026-04-26 09:21 | 37.94228 | -78.45827 | 32025 ft | 386 kts | 229° |
| 2026-04-26 09:21 | 37.90828 | -78.51105 | 32025 ft | 386 kts | 229° |
| 2026-04-26 09:22 | 37.87429 | -78.56367 | 32026 ft | 387 kts | 229° |
| 2026-04-26 09:22 | 37.84039 | -78.61602 | 32025 ft | 387 kts | 229° |
| 2026-04-26 09:23 | 37.80613 | -78.66888 | 32026 ft | 386 kts | 228° |
| 2026-04-26 09:23 | 37.77216 | -78.72124 | 32025 ft | 386 kts | 228° |
| 2026-04-26 09:24 | 37.73683 | -78.77197 | 32023 ft | 385 kts | 224° |
| 2026-04-26 09:24 | 37.69786 | -78.81828 | 32013 ft | 385 kts | 220° |
| 2026-04-26 09:25 | 37.65570 | -78.85989 | 32001 ft | 385 kts | 216° |
| 2026-04-26 09:25 | 37.61274 | -78.90034 | 31990 ft | 385 kts | 216° |
| 2026-04-26 09:26 | 37.56980 | -78.94057 | 31983 ft | 385 kts | 216° |
| 2026-04-26 09:26 | 37.52694 | -78.98054 | 31979 ft | 385 kts | 216° |
| 2026-04-26 09:27 | 37.48403 | -79.02045 | 31978 ft | 384 kts | 217° |
| 2026-04-26 09:27 | 37.44119 | -79.06027 | 31977 ft | 382 kts | 216° |
| 2026-04-26 09:28 | 37.39791 | -79.09855 | 31976 ft | 381 kts | 216° |
| 2026-04-26 09:28 | 37.35448 | -79.13628 | 31976 ft | 380 kts | 216° |
| 2026-04-26 09:29 | 37.31112 | -79.17409 | 31977 ft | 379 kts | 216° |
| 2026-04-26 09:29 | 37.26776 | -79.21182 | 31977 ft | 377 kts | 216° |
| 2026-04-26 09:30 | 37.22514 | -79.24940 | 31977 ft | 377 kts | 217° |
| 2026-04-26 09:30 | 37.18252 | -79.28808 | 31978 ft | 378 kts | 218° |
| 2026-04-26 09:31 | 37.14013 | -79.32639 | 31975 ft | 376 kts | 217° |
| 2026-04-26 09:31 | 37.09737 | -79.36488 | 31978 ft | 378 kts | 217° |
| 2026-04-26 09:32 | 37.05474 | -79.40308 | 31971 ft | 380 kts | 218° |
| 2026-04-26 09:32 | 37.01179 | -79.44154 | 31966 ft | 383 kts | 218° |
| 2026-04-26 09:33 | 36.96749 | -79.47914 | 31958 ft | 386 kts | 217° |
| 2026-04-26 09:33 | 36.92281 | -79.51672 | 31954 ft | 387 kts | 217° |
| 2026-04-26 09:34 | 36.87833 | -79.55416 | 31956 ft | 388 kts | 218° |
| 2026-04-26 09:34 | 36.83348 | -79.59192 | 31958 ft | 388 kts | 218° |
| 2026-04-26 09:35 | 36.78883 | -79.62943 | 31961 ft | 388 kts | 218° |
| 2026-04-26 09:35 | 36.74419 | -79.66691 | 31968 ft | 388 kts | 217° |
| 2026-04-26 09:36 | 36.69941 | -79.70444 | 31967 ft | 388 kts | 217° |
| 2026-04-26 09:36 | 36.65476 | -79.74174 | 31964 ft | 388 kts | 217° |
| 2026-04-26 09:37 | 36.60979 | -79.77924 | 31761 ft | 387 kts | 217° |
| 2026-04-26 09:37 | 36.58755 | -79.79775 | 31510 ft | 386 kts | 217° |
| 2026-04-26 09:37 | 36.56537 | -79.81619 | 31259 ft | 384 kts | 217° |
| 2026-04-26 09:37 | 36.54343 | -79.83443 | 31011 ft | 382 kts | 217° |
| 2026-04-26 09:38 | 36.52120 | -79.85290 | 30756 ft | 381 kts | 217° |
| 2026-04-26 09:38 | 36.49926 | -79.87117 | 30507 ft | 382 kts | 217° |
| 2026-04-26 09:38 | 36.47721 | -79.88951 | 30250 ft | 383 kts | 217° |
| 2026-04-26 09:38 | 36.45502 | -79.90794 | 29774 ft | 384 kts | 217° |
| 2026-04-26 09:39 | 36.43296 | -79.92626 | 29073 ft | 387 kts | 217° |
| 2026-04-26 09:39 | 36.41048 | -79.94488 | 28244 ft | 388 kts | 217° |
| 2026-04-26 09:39 | 36.38828 | -79.96327 | 27549 ft | 387 kts | 217° |
| 2026-04-26 09:39 | 36.36572 | -79.98193 | 27345 ft | 384 kts | 217° |
| 2026-04-26 09:40 | 36.34400 | -79.99985 | 27065 ft | 371 kts | 217° |
| 2026-04-26 09:40 | 36.32974 | -80.01162 | 26912 ft | 362 kts | 217° |
| 2026-04-26 09:40 | 36.30217 | -80.03439 | 26919 ft | 361 kts | 217° |
| 2026-04-26 09:40 | 36.28104 | -80.05184 | 26511 ft | 363 kts | 217° |
| 2026-04-26 09:41 | 36.26028 | -80.06897 | 25869 ft | 361 kts | 217° |
| 2026-04-26 09:41 | 36.23960 | -80.08602 | 25294 ft | 356 kts | 217° |
| 2026-04-26 09:41 | 36.21906 | -80.10294 | 24738 ft | 352 kts | 217° |
| 2026-04-26 09:41 | 36.19887 | -80.11955 | 24191 ft | 348 kts | 217° |
| 2026-04-26 09:42 | 36.17878 | -80.13608 | 23650 ft | 345 kts | 217° |
| 2026-04-26 09:42 | 36.15900 | -80.15234 | 23125 ft | 341 kts | 217° |
| 2026-04-26 09:42 | 36.13926 | -80.16856 | 22598 ft | 338 kts | 217° |
| 2026-04-26 09:42 | 36.11992 | -80.18444 | 22088 ft | 335 kts | 217° |
| 2026-04-26 09:43 | 36.10078 | -80.20014 | 21579 ft | 332 kts | 217° |
| 2026-04-26 09:43 | 36.08160 | -80.21586 | 21068 ft | 330 kts | 217° |
| 2026-04-26 09:43 | 36.06269 | -80.23135 | 20563 ft | 328 kts | 217° |
| 2026-04-26 09:43 | 36.04361 | -80.24697 | 20055 ft | 326 kts | 218° |
| 2026-04-26 09:44 | 36.02484 | -80.26233 | 19552 ft | 325 kts | 217° |
| 2026-04-26 09:44 | 36.00606 | -80.27769 | 19057 ft | 322 kts | 217° |
| 2026-04-26 09:44 | 35.98769 | -80.29268 | 18846 ft | 311 kts | 217° |
| 2026-04-26 09:44 | 35.96991 | -80.30721 | 18427 ft | 309 kts | 218° |
| 2026-04-26 09:45 | 35.95193 | -80.32192 | 17947 ft | 308 kts | 218° |
| 2026-04-26 09:45 | 35.93411 | -80.33648 | 17478 ft | 307 kts | 218° |
| 2026-04-26 09:45 | 35.91642 | -80.35091 | 17015 ft | 306 kts | 217° |
| 2026-04-26 09:45 | 35.89879 | -80.36530 | 16555 ft | 305 kts | 217° |
| 2026-04-26 09:46 | 35.88112 | -80.37970 | 16095 ft | 305 kts | 217° |
| 2026-04-26 09:46 | 35.86354 | -80.39402 | 15804 ft | 300 kts | 217° |
| 2026-04-26 09:46 | 35.84649 | -80.40783 | 15827 ft | 288 kts | 218° |
| 2026-04-26 09:46 | 35.82969 | -80.42145 | 15852 ft | 286 kts | 217° |
| 2026-04-26 09:47 | 35.81316 | -80.43465 | 15878 ft | 286 kts | 217° |
| 2026-04-26 09:47 | 35.79653 | -80.44782 | 15903 ft | 286 kts | 217° |
| 2026-04-26 09:47 | 35.77976 | -80.46109 | 15926 ft | 286 kts | 217° |
| 2026-04-26 09:47 | 35.76312 | -80.47425 | 15937 ft | 286 kts | 217° |
| 2026-04-26 09:48 | 35.74641 | -80.48746 | 15942 ft | 286 kts | 217° |
| 2026-04-26 09:48 | 35.72969 | -80.50068 | 15944 ft | 286 kts | 217° |
| 2026-04-26 09:48 | 35.71293 | -80.51392 | 15945 ft | 286 kts | 217° |
| 2026-04-26 09:48 | 35.69607 | -80.52725 | 15945 ft | 286 kts | 217° |
| 2026-04-26 09:49 | 35.67937 | -80.54026 | 15945 ft | 286 kts | 216° |
| 2026-04-26 09:49 | 35.66251 | -80.55308 | 15945 ft | 286 kts | 216° |
| 2026-04-26 09:49 | 35.64553 | -80.56593 | 15945 ft | 286 kts | 216° |
| 2026-04-26 09:49 | 35.62864 | -80.57870 | 15945 ft | 286 kts | 216° |
| 2026-04-26 09:50 | 35.61178 | -80.59146 | 15946 ft | 286 kts | 216° |
| 2026-04-26 09:50 | 35.59475 | -80.60435 | 15946 ft | 286 kts | 216° |
| 2026-04-26 09:50 | 35.57782 | -80.61718 | 15772 ft | 288 kts | 216° |
| 2026-04-26 09:50 | 35.56062 | -80.63021 | 15282 ft | 289 kts | 216° |
| 2026-04-26 09:51 | 35.54362 | -80.64308 | 14842 ft | 288 kts | 216° |
| 2026-04-26 09:51 | 35.52679 | -80.65570 | 14425 ft | 287 kts | 215° |
| 2026-04-26 09:51 | 35.50969 | -80.66845 | 14006 ft | 286 kts | 215° |
| 2026-04-26 09:51 | 35.49262 | -80.68116 | 13592 ft | 285 kts | 215° |
| 2026-04-26 09:52 | 35.47588 | -80.69363 | 13190 ft | 283 kts | 215° |
| 2026-04-26 09:52 | 35.44241 | -80.71854 | 12386 ft | 281 kts | 215° |
| 2026-04-26 09:52 | 35.42587 | -80.73085 | 11988 ft | 280 kts | 215° |
| 2026-04-26 09:53 | 35.40930 | -80.74316 | 11858 ft | 275 kts | 215° |
| 2026-04-26 09:53 | 35.39302 | -80.75527 | 11737 ft | 277 kts | 215° |
| 2026-04-26 09:53 | 35.37641 | -80.76761 | 11308 ft | 278 kts | 215° |
| 2026-04-26 09:53 | 35.35990 | -80.77987 | 10889 ft | 278 kts | 215° |
| 2026-04-26 09:54 | 35.34336 | -80.79215 | 10492 ft | 278 kts | 215° |
| 2026-04-26 09:54 | 35.32721 | -80.80411 | 10303 ft | 269 kts | 215° |
| 2026-04-26 09:54 | 35.31157 | -80.81567 | 10192 ft | 258 kts | 215° |
| 2026-04-26 09:54 | 35.29649 | -80.82682 | 10074 ft | 248 kts | 216° |
| 2026-04-26 09:55 | 35.28102 | -80.83524 | 9996 ft | 242 kts | 197° |
| 2026-04-26 09:55 | 35.26410 | -80.83652 | 9974 ft | 245 kts | 183° |
| 2026-04-26 09:55 | 35.24710 | -80.83520 | 9960 ft | 246 kts | 181° |
| 2026-04-26 09:55 | 35.22998 | -80.83350 | 9954 ft | 246 kts | 181° |
| 2026-04-26 09:56 | 35.21312 | -80.83186 | 9890 ft | 247 kts | 181° |
| 2026-04-26 09:56 | 35.19584 | -80.83028 | 9548 ft | 248 kts | 181° |
| 2026-04-26 09:56 | 35.17868 | -80.82880 | 9174 ft | 250 kts | 181° |
| 2026-04-26 09:56 | 35.16146 | -80.82734 | 8802 ft | 252 kts | 180° |
| 2026-04-26 09:57 | 35.14392 | -80.82587 | 8426 ft | 253 kts | 180° |
| 2026-04-26 09:57 | 35.12624 | -80.82440 | 8050 ft | 255 kts | 180° |
| 2026-04-26 09:57 | 35.10861 | -80.82293 | 7677 ft | 257 kts | 180° |
| 2026-04-26 09:57 | 35.09079 | -80.82144 | 7303 ft | 258 kts | 179° |
| 2026-04-26 09:58 | 35.07420 | -80.81998 | 6958 ft | 259 kts | 178° |
| 2026-04-26 09:58 | 35.05933 | -80.81844 | 6645 ft | 257 kts | 178° |
| 2026-04-26 09:58 | 35.04172 | -80.81654 | 6272 ft | 255 kts | 177° |
| 2026-04-26 09:58 | 35.02401 | -80.81458 | 5894 ft | 254 kts | 177° |
| 2026-04-26 09:59 | 35.00666 | -80.81264 | 5522 ft | 252 kts | 177° |
| 2026-04-26 09:59 | 34.98912 | -80.81072 | 5143 ft | 251 kts | 177° |
| 2026-04-26 09:59 | 34.97191 | -80.80933 | 4766 ft | 249 kts | 185° |
| 2026-04-26 09:59 | 34.95590 | -80.81542 | 4507 ft | 237 kts | 220° |
| 2026-04-26 10:00 | 34.94577 | -80.83012 | 4361 ft | 222 kts | 248° |
| 2026-04-26 10:00 | 34.94281 | -80.84805 | 4236 ft | 215 kts | 278° |
| 2026-04-26 10:00 | 34.94730 | -80.86519 | 4117 ft | 213 kts | 299° |
| 2026-04-26 10:00 | 34.95472 | -80.88063 | 3997 ft | 212 kts | 309° |
| 2026-04-26 10:01 | 34.96596 | -80.89204 | 3991 ft | 212 kts | 329° |
| 2026-04-26 10:01 | 34.97887 | -80.90067 | 3989 ft | 213 kts | 332° |
| 2026-04-26 10:01 | 34.99193 | -80.90917 | 3987 ft | 213 kts | 331° |
| 2026-04-26 10:01 | 35.00482 | -80.91795 | 3987 ft | 213 kts | 330° |
| 2026-04-26 10:02 | 35.01769 | -80.92693 | 3986 ft | 213 kts | 332° |
| 2026-04-26 10:02 | 35.03106 | -80.93362 | 3956 ft | 205 kts | 343° |
| 2026-04-26 10:02 | 35.04502 | -80.93709 | 3762 ft | 202 kts | 352° |
| 2026-04-26 10:02 | 35.05856 | -80.93876 | 3491 ft | 193 kts | 355° |
| 2026-04-26 10:03 | 35.07152 | -80.93984 | 3304 ft | 181 kts | 355° |
| 2026-04-26 10:03 | 35.08370 | -80.94078 | 3065 ft | 170 kts | 355° |
| 2026-04-26 10:03 | 35.09512 | -80.94173 | 2836 ft | 158 kts | 355° |
| 2026-04-26 10:03 | 35.10565 | -80.94263 | 2609 ft | 147 kts | 355° |
| 2026-04-26 10:04 | 35.11531 | -80.94347 | 2385 ft | 132 kts | 355° |
| 2026-04-26 10:04 | 35.12432 | -80.94427 | 2209 ft | 130 kts | 355° |
| 2026-04-26 10:04 | 35.13339 | -80.94506 | 2050 ft | 130 kts | 355° |
| 2026-04-26 10:04 | 35.14239 | -80.94584 | 1890 ft | 130 kts | 355° |
| 2026-04-26 10:05 | 35.15139 | -80.94662 | 1726 ft | 130 kts | 356° |
| 2026-04-26 10:05 | 35.16036 | -80.94740 | 1556 ft | 130 kts | 356° |
| 2026-04-26 10:05 | 35.16937 | -80.94817 | 1380 ft | 130 kts | 356° |
| 2026-04-26 10:05 | 35.17841 | -80.94895 | 1203 ft | 130 kts | 356° |
| 2026-04-26 10:06 | 35.18738 | -80.94973 | 1034 ft | 130 kts | 356° |
| 2026-04-26 10:06 | 35.19642 | -80.95049 | 860 ft | 130 kts | 356° |
| 2026-04-26 10:06 | 35.20526 | -80.95123 | 759 ft | 120 kts | 356° |
| 2026-04-26 10:06 | 35.21202 | -80.95183 | 758 ft | 71 kts | 355° |
| 2026-04-26 10:07 | 35.21586 | -80.95213 | 758 ft | 45 kts | 356° |
| 2026-04-26 10:07 | 35.21823 | -80.95225 | 758 ft | 29 kts | 6° |
| 2026-04-26 10:07 | 35.21973 | -80.95174 | 758 ft | 18 kts | 24° |
| 2026-04-26 10:07 | 35.22035 | -80.95133 | 758 ft | 8 kts | 43° |
| 2026-04-26 10:08 | 35.22041 | -80.95068 | 758 ft | 9 kts | 128° |
| 2026-04-26 10:08 | 35.21966 | -80.95044 | 758 ft | 12 kts | 180° |
| 2026-04-26 10:08 | 35.21882 | -80.95036 | 758 ft | 12 kts | 174° |
| 2026-04-26 10:08 | 35.21799 | -80.95027 | 758 ft | 12 kts | 177° |
| 2026-04-26 10:09 | 35.21714 | -80.95022 | 758 ft | 12 kts | 176° |
| 2026-04-26 10:09 | 35.21632 | -80.95007 | 758 ft | 12 kts | 150° |
| 2026-04-26 10:09 | 35.21614 | -80.94909 | 758 ft | 15 kts | 86° |
| 2026-04-26 10:09 | 35.21623 | -80.94707 | 758 ft | 26 kts | 86° |
| 2026-04-26 10:10 | 35.21639 | -80.94504 | 758 ft | 17 kts | 83° |
| 2026-04-26 10:10 | 35.21684 | -80.94383 | 758 ft | 13 kts | 22° |
| 2026-04-26 10:10 | 35.21781 | -80.94387 | 758 ft | 13 kts | 355° |
| 2026-04-26 10:10 | 35.21853 | -80.94386 | 758 ft | 5 kts | 6° |
| 2026-04-26 10:11 | 35.21886 | -80.94357 | 758 ft | 5 kts | 68° |
| 2026-04-26 10:11 | 35.21891 | -80.94334 | 758 ft | 4 kts | 76° |
| 2026-04-26 10:11 | 35.21898 | -80.94303 | 758 ft | 1 kts | 77° |
| 2026-04-26 10:11 | 35.21898 | -80.94301 | 758 ft | 0 kts | 77° |